Terminal Aerodrome Forecast
Issued by NWS

Home | Current Version | Previous Version | Graphics & Text | Print | Product List | Glossary On
Versions: 1 2 3 4 5 6 7 8 9 10 11 12 13 14 15 16 17 18 19 20 21 22 23 24 25 26 27 28 29
159
FTUS43 KTOP 190439 AAA
TAFFOE
TAF AMD
KFOE 190439Z 1905/1924 18018G26KT P6SM OVC008 WS013/21055KT
     FM190900 18017KT P6SM -DZ VCSH OVC008 WS013/22055KT
     FM191400 33008KT P6SM VCSH OVC015
     FM191800 26008KT P6SM OVC020=

USA.gov is the U.S. government's official web portal to all federal, state and local government web resources and services.